Time;durP1;ratioP1;P1;durP2;ratioP2;P2;SDS_P1;SDS_P2;PMS_P1;PMS_P2;Temp;Humidity;BMP_temperature;BMP_pressure;BME280_temperature;BME280_humidity;BME280_pressure;Samples;Min_cycle;Max_cycle;Signal;HPM_P1;HPM_P2
2021/10/27 00:02:10;;;;;;;6.55;4.75;;;7.30;99.90;;;;;;5037155;28;20432;-76
2021/10/27 00:04:36;;;;;;;7.50;5.47;;;7.30;99.90;;;;;;5032688;28;20022;-76
2021/10/27 00:07:02;;;;;;;6.72;5.25;;;7.40;99.90;;;;;;5038624;28;20041;-74
2021/10/27 00:09:28;;;;;;;6.75;4.75;;;7.30;99.90;;;;;;5004715;28;20148;-76
2021/10/27 00:11:54;;;;;;;9.73;6.72;;;7.30;99.90;;;;;;5015552;28;20026;-75
2021/10/27 00:14:20;;;;;;;6.65;5.90;;;7.20;99.90;;;;;;5017056;28;20164;-75
2021/10/27 00:16:46;;;;;;;6.13;5.45;;;7.30;99.90;;;;;;5017098;28;20021;-75
2021/10/27 00:19:11;;;;;;;6.53;4.70;;;7.20;99.90;;;;;;5016855;28;20021;-76
2021/10/27 00:21:37;;;;;;;5.53;4.93;;;7.20;99.90;;;;;;5017450;28;20058;-76
2021/10/27 00:24:03;;;;;;;6.30;5.00;;;7.20;99.90;;;;;;5018069;28;20037;-74
2021/10/27 00:26:28;;;;;;;8.00;5.50;;;7.20;99.90;;;;;;5019379;28;20060;-75
2021/10/27 00:28:54;;;;;;;6.78;5.43;;;7.10;99.90;;;;;;5022622;28;20041;-75
2021/10/27 00:31:20;;;;;;;5.50;4.93;;;7.10;99.90;;;;;;5025198;28;20014;-75
2021/10/27 00:33:46;;;;;;;8.75;5.18;;;7.10;99.90;;;;;;5017451;28;20084;-75
2021/10/27 00:36:12;;;;;;;11.45;5.03;;;7.10;99.90;;;;;;5016390;28;20026;-76
2021/10/27 00:38:37;;;;;;;7.38;5.63;;;7.00;99.90;;;;;;5017111;28;20044;-75
2021/10/27 00:41:07;;;;;;;7.70;5.47;;;7.00;99.90;;;;;;5010328;28;20022;-75
2021/10/27 00:43:35;;;;;;;6.97;5.25;;;7.00;99.90;;;;;;5015983;28;20055;-76
2021/10/27 00:46:01;;;;;;;9.07;6.15;;;7.00;99.90;;;;;;5016798;28;20022;-78
2021/10/27 00:48:26;;;;;;;5.88;5.28;;;7.00;99.90;;;;;;5015912;28;20034;-75
2021/10/27 00:50:52;;;;;;;6.35;5.70;;;7.00;99.90;;;;;;5016968;28;20084;-76
2021/10/27 00:53:19;;;;;;;8.32;5.65;;;7.00;99.90;;;;;;5032194;28;20123;-73
2021/10/27 00:55:45;;;;;;;7.90;5.97;;;7.00;99.90;;;;;;5018485;28;20030;-75
2021/10/27 00:58:11;;;;;;;8.32;6.07;;;7.00;99.90;;;;;;5018591;28;20026;-75
2021/10/27 01:00:37;;;;;;;9.73;6.43;;;7.00;99.90;;;;;;5021745;28;20025;-75
2021/10/27 01:03:02;;;;;;;7.65;6.20;;;6.90;99.90;;;;;;5016548;28;20093;-74
2021/10/27 01:05:29;;;;;;;7.43;5.97;;;6.90;99.90;;;;;;5036266;28;20018;-73
2021/10/27 01:07:55;;;;;;;9.63;7.82;;;6.90;99.90;;;;;;5029208;28;20033;-76
2021/10/27 01:10:21;;;;;;;12.13;7.95;;;6.90;99.90;;;;;;5000584;28;20091;-76
2021/10/27 01:12:47;;;;;;;8.93;7.32;;;6.80;99.90;;;;;;5003395;28;20022;-75
2021/10/27 01:15:13;;;;;;;10.48;7.72;;;6.90;99.90;;;;;;5027774;28;20045;-75
2021/10/27 01:17:39;;;;;;;13.90;8.80;;;6.90;99.90;;;;;;5036940;28;20018;-73
2021/10/27 01:20:05;;;;;;;7.80;6.78;;;6.90;99.90;;;;;;5039926;28;20045;-73
2021/10/27 01:22:37;;;;;;;8.45;7.57;;;6.80;99.90;;;;;;5030974;28;20040;-74
2021/10/27 01:25:05;;;;;;;9.52;7.45;;;6.80;99.90;;;;;;5037568;28;20026;-74
2021/10/27 01:27:32;;;;;;;19.05;8.77;;;6.70;99.90;;;;;;5026526;28;20091;-75
2021/10/27 01:29:58;;;;;;;10.93;8.90;;;6.70;99.90;;;;;;5000610;28;20030;-75
2021/10/27 01:32:30;;;;;;;11.45;7.82;;;6.60;99.90;;;;;;5018649;28;20049;-75
2021/10/27 01:34:57;;;;;;;11.43;8.70;;;6.60;99.90;;;;;;5021004;28;20084;-75
2021/10/27 01:37:23;;;;;;;9.90;8.90;;;6.60;99.90;;;;;;4996559;28;20402;-76
2021/10/27 01:39:49;;;;;;;11.80;8.27;;;6.60;99.90;;;;;;5015710;28;20026;-76
2021/10/27 01:42:14;;;;;;;11.60;8.27;;;6.60;99.90;;;;;;5014189;28;20105;-76
2021/10/27 01:44:40;;;;;;;11.20;8.88;;;6.60;99.90;;;;;;5015872;28;20064;-76
2021/10/27 01:47:06;;;;;;;12.60;9.65;;;6.60;99.90;;;;;;5008633;28;20088;-76
2021/10/27 01:49:32;;;;;;;17.73;10.02;;;6.60;99.90;;;;;;5014402;28;20038;-76
2021/10/27 01:51:58;;;;;;;24.88;11.10;;;6.60;99.90;;;;;;5015130;28;20030;-76
2021/10/27 01:54:25;;;;;;;33.33;10.30;;;6.60;99.90;;;;;;5014312;28;20029;-76
2021/10/27 01:56:51;;;;;;;93.05;11.90;;;6.60;99.90;;;;;;4994957;28;20072;-76
2021/10/27 01:59:17;;;;;;;48.55;12.40;;;6.70;99.90;;;;;;5014627;28;20033;-76
2021/10/27 02:01:42;;;;;;;141.90;13.77;;;6.60;99.90;;;;;;5015102;28;20093;-75
2021/10/27 02:04:08;;;;;;;96.85;12.80;;;6.60;99.90;;;;;;4998529;28;20030;-76
2021/10/27 02:06:33;;;;;;;93.50;12.15;;;6.60;99.90;;;;;;4996902;28;20033;-76
2021/10/27 02:08:59;;;;;;;86.65;12.43;;;6.60;99.90;;;;;;5033119;28;20085;-73
2021/10/27 02:11:25;;;;;;;81.28;13.90;;;6.60;99.90;;;;;;5018864;28;20030;-76
2021/10/27 02:13:50;;;;;;;104.10;12.73;;;6.60;99.90;;;;;;4994621;28;20057;-76
2021/10/27 02:16:16;;;;;;;76.70;13.90;;;6.60;99.90;;;;;;4998179;28;20453;-76
2021/10/27 02:18:42;;;;;;;78.40;12.82;;;6.60;99.90;;;;;;4997152;28;20037;-76
2021/10/27 02:21:07;;;;;;;45.00;12.75;;;6.60;99.90;;;;;;5013718;28;20452;-74
2021/10/27 02:23:33;;;;;;;61.78;12.48;;;6.60;99.90;;;;;;5016701;28;20030;-77
2021/10/27 02:25:58;;;;;;;37.10;13.10;;;6.60;99.90;;;;;;4996729;28;20033;-77
2021/10/27 02:28:24;;;;;;;66.70;12.43;;;6.60;99.90;;;;;;4997035;28;20026;-76
2021/10/27 02:30:50;;;;;;;62.75;12.73;;;6.60;99.90;;;;;;5014418;28;20026;-77
2021/10/27 02:33:16;;;;;;;49.58;13.18;;;6.60;99.90;;;;;;5014604;28;20144;-74
2021/10/27 02:35:41;;;;;;;63.63;12.75;;;6.60;99.90;;;;;;5014466;28;20045;-75
2021/10/27 02:38:07;;;;;;;63.83;12.52;;;6.60;99.90;;;;;;5014178;28;20532;-78
2021/10/27 02:40:33;;;;;;;116.82;12.82;;;6.60;99.90;;;;;;4996289;28;20032;-75
2021/10/27 02:42:58;;;;;;;47.72;14.02;;;6.70;99.90;;;;;;5014412;28;20033;-76
2021/10/27 02:45:24;;;;;;;119.00;13.50;;;6.70;99.90;;;;;;4996170;28;20041;-76
2021/10/27 02:47:49;;;;;;;72.13;12.50;;;6.70;99.90;;;;;;5013908;28;20025;-75
2021/10/27 02:50:15;;;;;;;27.65;12.55;;;6.70;99.90;;;;;;5013835;28;20032;-75
2021/10/27 02:52:44;;;;;;;13.05;11.30;;;6.70;99.90;;;;;;5019227;28;20049;-73
2021/10/27 02:55:11;;;;;;;18.05;12.63;;;6.70;99.90;;;;;;5016190;28;20030;-74
2021/10/27 02:57:36;;;;;;;17.15;12.85;;;6.70;99.90;;;;;;4999341;28;20401;-76
2021/10/27 03:00:05;;;;;;;15.48;12.00;;;6.70;99.90;;;;;;5013944;28;20138;-76
2021/10/27 03:02:31;;;;;;;12.07;10.82;;;6.60;99.90;;;;;;5013404;28;20030;-76
2021/10/27 03:04:56;;;;;;;13.35;11.95;;;6.60;99.90;;;;;;5013815;28;20026;-75
2021/10/27 03:07:22;;;;;;;24.40;12.40;;;6.60;99.90;;;;;;5013694;28;20474;-76
2021/10/27 03:09:47;;;;;;;36.50;12.10;;;6.60;99.90;;;;;;5013152;28;20030;-76
2021/10/27 03:12:14;;;;;;;34.22;12.07;;;6.70;99.90;;;;;;5016880;28;20033;-75
2021/10/27 03:14:40;;;;;;;14.00;12.38;;;6.70;99.90;;;;;;4994578;28;20367;-76
2021/10/27 03:17:06;;;;;;;15.60;12.23;;;6.60;99.90;;;;;;5012938;28;20033;-76
2021/10/27 03:19:32;;;;;;;15.55;10.88;;;6.60;99.90;;;;;;5013747;28;20058;-75
2021/10/27 03:21:57;;;;;;;12.30;10.70;;;6.50;99.90;;;;;;5015156;28;20154;-77
2021/10/27 03:24:23;;;;;;;12.10;10.80;;;6.50;99.90;;;;;;5013867;28;20029;-76
2021/10/27 03:26:49;;;;;;;14.95;11.65;;;6.50;99.90;;;;;;5013967;28;20064;-76
2021/10/27 03:29:14;;;;;;;12.98;10.98;;;6.50;99.90;;;;;;4996984;28;20057;-77
2021/10/27 03:31:40;;;;;;;19.38;11.38;;;6.40;99.90;;;;;;4998361;28;20026;-77
2021/10/27 03:34:06;;;;;;;13.93;11.02;;;6.40;99.90;;;;;;5007764;28;20045;-76
2021/10/27 03:36:31;;;;;;;13.35;11.65;;;6.40;99.90;;;;;;4998638;28;20027;-75
2021/10/27 03:38:57;;;;;;;12.95;11.57;;;6.40;99.90;;;;;;5000088;28;20032;-76
2021/10/27 03:41:23;;;;;;;13.73;11.15;;;6.30;99.90;;;;;;5014109;28;20030;-76
2021/10/27 03:43:49;;;;;;;14.32;11.45;;;6.30;99.90;;;;;;5013809;28;20034;-78
2021/10/27 03:46:14;;;;;;;14.43;12.93;;;6.30;99.90;;;;;;5012889;28;20069;-76
2021/10/27 03:48:41;;;;;;;15.07;13.55;;;6.30;99.90;;;;;;5015325;28;20029;-75
2021/10/27 03:51:10;;;;;;;17.23;15.32;;;6.30;99.90;;;;;;5014126;28;20087;-76
2021/10/27 03:53:36;;;;;;;18.42;16.63;;;6.30;99.90;;;;;;4994984;28;20030;-78
2021/10/27 03:56:02;;;;;;;15.55;13.93;;;6.30;99.90;;;;;;4995488;28;20049;-74
2021/10/27 03:58:30;;;;;;;17.40;13.27;;;6.30;99.90;;;;;;5013734;28;20486;-76
2021/10/27 04:00:56;;;;;;;15.52;13.70;;;6.30;99.90;;;;;;5014315;28;20032;-75
2021/10/27 04:03:23;;;;;;;14.55;12.85;;;6.30;99.90;;;;;;5012787;28;20476;-77
2021/10/27 04:05:49;;;;;;;13.20;11.80;;;6.30;99.90;;;;;;5013409;28;20026;-76
2021/10/27 04:08:16;;;;;;;14.25;12.18;;;6.20;99.90;;;;;;5012854;28;20489;-76
2021/10/27 04:10:42;;;;;;;12.20;10.85;;;6.20;99.90;;;;;;5013261;28;20394;-77
2021/10/27 04:13:07;;;;;;;14.05;10.18;;;6.20;99.90;;;;;;5007104;28;20026;-75
2021/10/27 04:15:33;;;;;;;11.68;10.32;;;6.20;99.90;;;;;;5036053;28;20060;-74
2021/10/27 04:17:59;;;;;;;11.95;10.02;;;6.30;99.90;;;;;;5035294;28;20038;-76
2021/10/27 04:20:26;;;;;;;11.13;10.02;;;6.30;99.90;;;;;;5034786;28;20056;-75
2021/10/27 04:22:52;;;;;;;11.80;10.52;;;6.20;99.90;;;;;;5022877;28;20019;-73
2021/10/27 04:25:18;;;;;;;10.80;8.90;;;6.20;99.90;;;;;;5022073;28;20010;-73
2021/10/27 04:27:44;;;;;;;9.95;9.00;;;6.10;99.90;;;;;;5037150;28;20048;-73
2021/10/27 04:30:10;;;;;;;9.40;8.50;;;6.30;99.90;;;;;;5031633;28;20092;-73
2021/10/27 04:32:36;;;;;;;9.32;8.48;;;6.20;99.90;;;;;;4997005;28;20068;-75
2021/10/27 04:35:03;;;;;;;8.85;7.95;;;6.20;99.90;;;;;;5024796;28;20037;-77
2021/10/27 04:37:33;;;;;;;9.05;8.15;;;6.10;99.90;;;;;;4996063;28;20072;-75
2021/10/27 04:39:59;;;;;;;11.15;8.00;;;6.30;99.90;;;;;;5013054;28;20018;-76
2021/10/27 04:42:24;;;;;;;10.82;8.68;;;6.20;99.90;;;;;;4995079;28;20037;-75
2021/10/27 04:44:50;;;;;;;11.02;9.93;;;6.10;99.90;;;;;;5016431;28;20080;-75
2021/10/27 04:47:16;;;;;;;11.30;9.80;;;6.10;99.90;;;;;;4998658;28;20034;-77
2021/10/27 04:49:41;;;;;;;10.05;9.07;;;6.10;99.90;;;;;;4998009;28;20030;-75
2021/10/27 04:52:07;;;;;;;10.10;9.10;;;6.10;99.90;;;;;;5016568;28;20057;-76
2021/10/27 04:54:33;;;;;;;10.82;9.60;;;6.00;99.90;;;;;;5016398;28;20053;-76
2021/10/27 04:56:59;;;;;;;11.05;9.98;;;6.00;99.90;;;;;;5015668;28;20482;-76
2021/10/27 04:59:30;;;;;;;14.32;9.48;;;6.00;99.90;;;;;;4997783;28;20437;-76
2021/10/27 05:01:56;;;;;;;13.60;9.75;;;5.90;99.90;;;;;;5016576;28;20112;-76
2021/10/27 05:04:22;;;;;;;10.35;9.13;;;5.90;99.90;;;;;;5016222;28;20508;-75
2021/10/27 05:06:48;;;;;;;11.48;8.85;;;6.00;99.90;;;;;;5017711;28;20025;-76
2021/10/27 05:09:13;;;;;;;10.55;8.82;;;6.00;99.90;;;;;;5019909;28;20044;-75
2021/10/27 05:11:39;;;;;;;10.32;8.57;;;6.10;99.90;;;;;;5019108;28;20097;-75
2021/10/27 05:14:05;;;;;;;14.15;8.52;;;6.10;99.90;;;;;;5026037;28;20466;-75
2021/10/27 05:16:30;;;;;;;13.55;9.48;;;6.10;99.90;;;;;;5017348;28;20425;-75
2021/10/27 05:18:56;;;;;;;12.45;8.88;;;6.00;99.90;;;;;;5017806;28;20034;-75
2021/10/27 05:21:21;;;;;;;10.93;9.20;;;6.00;99.90;;;;;;5016040;28;20064;-75
2021/10/27 05:23:47;;;;;;;12.77;10.15;;;5.90;99.90;;;;;;5016387;28;20025;-76
2021/10/27 05:26:13;;;;;;;12.98;9.70;;;5.90;99.90;;;;;;5021791;28;20072;-75
2021/10/27 05:28:38;;;;;;;10.48;9.13;;;5.80;99.90;;;;;;5028447;28;20057;-75
2021/10/27 05:31:04;;;;;;;16.35;10.82;;;5.80;99.90;;;;;;5020927;28;20033;-75
2021/10/27 05:33:30;;;;;;;13.95;10.20;;;5.80;99.90;;;;;;5017881;28;20033;-75
2021/10/27 05:35:55;;;;;;;12.18;10.63;;;5.80;99.90;;;;;;5020227;28;20426;-77
2021/10/27 05:38:21;;;;;;;12.23;10.15;;;5.90;99.90;;;;;;5021974;28;20014;-76
2021/10/27 05:40:46;;;;;;;10.98;9.50;;;5.90;99.90;;;;;;5017128;28;20033;-77
2021/10/27 05:43:14;;;;;;;15.07;10.90;;;6.00;99.90;;;;;;5014985;28;20087;-77
2021/10/27 05:45:40;;;;;;;11.65;9.20;;;6.20;99.90;;;;;;5015285;28;20034;-77
2021/10/27 05:48:07;;;;;;;9.93;8.95;;;6.10;99.90;;;;;;5015231;28;20076;-76
2021/10/27 05:55:46;;;;;;;17.67;10.32;;;6.10;99.90;;;;;;5016622;28;20492;-76
2021/10/27 05:58:13;;;;;;;11.48;8.45;;;6.20;99.90;;;;;;5018433;28;20018;-74
2021/10/27 06:00:41;;;;;;;13.88;9.68;;;6.30;99.90;;;;;;5055421;23;20412;-76
2021/10/27 06:03:06;;;;;;;13.80;9.88;;;6.40;99.90;;;;;;5034739;28;20504;-76
2021/10/27 06:05:32;;;;;;;14.68;10.07;;;6.40;99.90;;;;;;5014952;28;20075;-76
2021/10/27 06:07:58;;;;;;;13.20;9.20;;;6.50;99.90;;;;;;5033705;28;20389;-75
2021/10/27 06:10:25;;;;;;;13.63;10.18;;;6.50;99.90;;;;;;5030663;28;20037;-76
2021/10/27 06:12:56;;;;;;;15.02;10.00;;;6.50;99.90;;;;;;5014329;28;20294;-76
2021/10/27 06:15:23;;;;;;;12.02;8.43;;;6.40;99.90;;;;;;5014379;28;20500;-76
2021/10/27 06:17:49;;;;;;;13.20;9.32;;;6.40;99.90;;;;;;5013953;28;20551;-76
2021/10/27 06:20:15;;;;;;;11.93;8.60;;;6.40;99.90;;;;;;5013035;28;20048;-75
2021/10/27 06:22:41;;;;;;;14.57;10.63;;;6.40;99.90;;;;;;5013618;28;20418;-77
2021/10/27 06:25:09;;;;;;;9.73;7.80;;;6.30;99.90;;;;;;4995976;28;20125;-76
2021/10/27 06:27:35;;;;;;;12.02;8.52;;;6.40;99.90;;;;;;5013013;28;20065;-77
2021/10/27 06:30:29;;;;;;;13.57;7.88;;;6.40;99.90;;;;;;5013232;28;20072;-77
2021/10/27 06:33:02;;;;;;;13.50;9.13;;;6.50;99.90;;;;;;5013229;28;20116;-77
2021/10/27 06:35:35;;;;;;;16.30;8.65;;;6.50;99.90;;;;;;5012957;28;20394;-76
2021/10/27 06:38:28;;;;;;;10.13;7.30;;;6.60;99.90;;;;;;5013203;28;20088;-76
2021/10/27 06:48:54;;;;;;;8.27;7.47;;;6.90;99.90;;;;;;5013245;28;20026;-77
2021/10/27 06:51:19;;;;;;;9.23;6.55;;;7.10;99.90;;;;;;5013520;28;20470;-77
2021/10/27 06:53:46;;;;;;;9.00;7.20;;;7.30;99.90;;;;;;5014262;28;20506;-77
2021/10/27 06:56:12;;;;;;;9.05;7.00;;;7.60;99.90;;;;;;5014313;28;20033;-77
2021/10/27 06:59:05;;;;;;;8.93;7.10;;;7.70;99.90;;;;;;4996722;28;20025;-77
2021/10/27 07:17:02;;;;;;;9.55;7.43;;;7.50;99.90;;;;;;5015259;28;20438;-77
2021/10/27 07:19:28;;;;;;;9.43;7.20;;;7.70;99.90;;;;;;5014422;28;20045;-76
2021/10/27 07:21:54;;;;;;;8.98;8.07;;;7.90;99.90;;;;;;5014994;28;20026;-75
2021/10/27 07:24:20;;;;;;;9.60;7.50;;;8.00;99.90;;;;;;5019669;28;20030;-75
2021/10/27 07:26:46;;;;;;;10.68;8.70;;;8.10;99.90;;;;;;5019294;28;20025;-76
2021/10/27 07:29:17;;;;;;;8.75;7.85;;;8.10;99.90;;;;;;5011429;28;20422;-76
2021/10/27 07:31:43;;;;;;;12.02;8.98;;;8.10;99.90;;;;;;4998046;28;20072;-75
2021/10/27 07:34:12;;;;;;;8.77;7.47;;;8.10;99.90;;;;;;5023284;28;20425;-73
2021/10/27 07:39:51;;;;;;;8.85;7.93;;;8.10;99.90;;;;;;5013595;28;20068;-73
2021/10/27 07:42:10;;;;;;;8.20;7.40;;;8.20;99.90;;;;;;5017715;28;20087;-74
2021/10/27 07:44:35;;;;;;;9.95;6.90;;;8.20;99.90;;;;;;5020380;28;20034;-72
2021/10/27 07:47:01;;;;;;;7.60;6.80;;;8.30;99.90;;;;;;5013960;28;20026;-73
2021/10/27 07:49:27;;;;;;;9.13;7.10;;;8.30;99.90;;;;;;5012856;28;20037;-72
2021/10/27 07:51:52;;;;;;;7.75;6.95;;;8.20;99.90;;;;;;5013572;28;20076;-73
2021/10/27 07:54:18;;;;;;;10.05;8.25;;;8.20;99.90;;;;;;5014196;28;20026;-74
2021/10/27 07:56:45;;;;;;;10.30;8.13;;;8.20;99.90;;;;;;5013908;28;20025;-74
2021/10/27 07:59:12;;;;;;;12.48;8.35;;;8.30;99.90;;;;;;5018626;28;20025;-74
2021/10/27 08:01:37;;;;;;;12.85;9.27;;;8.40;99.90;;;;;;5027684;28;20064;-72
2021/10/27 08:04:04;;;;;;;11.88;8.35;;;8.50;99.90;;;;;;5016972;28;20034;-73
2021/10/27 08:06:30;;;;;;;12.55;8.52;;;8.40;99.90;;;;;;5015857;28;20026;-74
2021/10/27 08:08:56;;;;;;;10.30;8.18;;;8.40;99.90;;;;;;5015311;28;20041;-73
2021/10/27 08:11:22;;;;;;;10.48;8.27;;;8.40;99.90;;;;;;5012646;28;20022;-73
2021/10/27 08:13:48;;;;;;;9.55;8.32;;;8.50;99.90;;;;;;5013467;28;20038;-72
2021/10/27 08:16:13;;;;;;;9.23;8.07;;;8.60;99.90;;;;;;5013296;28;20445;-73
2021/10/27 08:18:39;;;;;;;9.57;8.25;;;8.60;99.90;;;;;;5013894;28;20481;-74
2021/10/27 08:21:05;;;;;;;9.18;7.85;;;8.70;99.90;;;;;;5017730;28;20053;-73
2021/10/27 08:23:35;;;;;;;9.25;7.28;;;8.70;99.90;;;;;;5018091;28;20389;-73
2021/10/27 08:26:06;;;;;;;9.40;7.65;;;8.80;99.90;;;;;;5016882;28;20098;-74
2021/10/27 08:28:40;;;;;;;9.57;8.45;;;8.80;99.90;;;;;;5016736;28;20085;-73
2021/10/27 08:31:17;;;;;;;9.13;7.78;;;8.80;99.90;;;;;;5016618;28;20061;-72
2021/10/27 08:33:49;;;;;;;9.95;7.70;;;9.00;99.90;;;;;;5017153;28;20018;-74
2021/10/27 08:36:14;;;;;;;8.52;7.63;;;9.10;99.90;;;;;;5015455;28;20037;-74
2021/10/27 08:38:40;;;;;;;10.23;8.15;;;9.10;99.90;;;;;;5014320;28;20099;-72
2021/10/27 08:41:06;;;;;;;14.27;7.72;;;9.20;99.90;;;;;;5014930;28;20062;-71
2021/10/27 08:43:32;;;;;;;8.35;7.55;;;9.10;99.90;;;;;;5014774;28;20049;-73
2021/10/27 08:46:01;;;;;;;8.55;7.53;;;9.30;99.90;;;;;;5014766;28;20080;-72
2021/10/27 08:48:29;;;;;;;8.77;7.97;;;9.40;99.90;;;;;;4996881;28;20029;-71
2021/10/27 08:50:55;;;;;;;9.05;8.15;;;9.40;99.90;;;;;;5014552;28;20034;-71
2021/10/27 08:53:23;;;;;;;10.65;7.82;;;9.40;99.90;;;;;;5015447;28;20014;-72
2021/10/27 08:55:50;;;;;;;10.32;8.13;;;9.60;99.90;;;;;;5015803;28;20021;-72
2021/10/27 08:58:24;;;;;;;10.25;8.38;;;9.70;99.90;;;;;;5000199;28;20104;-72
2021/10/27 09:01:05;;;;;;;9.65;8.65;;;9.50;99.90;;;;;;5016884;28;20021;-72
2021/10/27 09:06:15;;;;;;;9.70;8.73;;;9.80;99.90;;;;;;5003824;28;20053;-71
2021/10/27 09:34:26;;;;;;;8.95;7.82;;;10.60;99.90;;;;;;4999750;28;20049;-72
2021/10/27 10:04:25;;;;;;;12.65;8.85;;;11.40;99.90;;;;;;5014090;28;20079;-73
2021/10/27 10:06:58;;;;;;;8.95;8.05;;;11.80;99.90;;;;;;5009477;28;20496;-73
2021/10/27 10:09:25;;;;;;;11.75;8.43;;;11.90;99.90;;;;;;5013748;28;20030;-74
2021/10/27 10:11:51;;;;;;;15.30;9.60;;;11.80;99.90;;;;;;5013749;28;20334;-73
2021/10/27 10:14:19;;;;;;;9.73;8.68;;;12.00;99.90;;;;;;5013884;28;20022;-74
2021/10/27 10:16:57;;;;;;;9.52;8.48;;;12.10;99.90;;;;;;5019050;28;20155;-73
2021/10/27 10:19:33;;;;;;;15.48;10.07;;;12.30;99.90;;;;;;5015479;28;20033;-74
2021/10/27 10:21:59;;;;;;;11.02;8.93;;;12.30;99.90;;;;;;5015134;28;20048;-73
2021/10/27 10:24:39;;;;;;;9.40;8.40;;;12.40;99.90;;;;;;5015359;28;20498;-71
2021/10/27 10:27:14;;;;;;;12.48;9.40;;;12.60;99.90;;;;;;4997201;28;20079;-73
2021/10/27 10:29:46;;;;;;;12.13;9.00;;;12.70;99.90;;;;;;5013998;28;20026;-72
2021/10/27 10:34:51;;;;;;;16.30;10.00;;;13.00;99.90;;;;;;5012532;28;20421;-73
2021/10/27 10:40:36;;;;;;;11.38;9.07;;;13.10;99.90;;;;;;4999621;28;20048;-72
2021/10/27 10:43:17;;;;;;;10.55;8.43;;;12.90;99.90;;;;;;4993883;28;20033;-72
2021/10/27 11:22:15;;;;;;;8.65;7.35;;;14.50;99.90;;;;;;5013446;28;20111;-73
2021/10/27 11:23:18;;;;;;;8.55;6.47;;;14.40;99.90;;;;;;5012828;28;20513;-73
2021/10/27 11:42:42;;;;;;;7.38;4.20;;;14.80;99.90;;;;;;4981000;28;20034;-72
2021/10/27 11:45:22;;;;;;;6.93;4.60;;;14.80;99.90;;;;;;5021586;28;20084;-73
2021/10/27 11:47:49;;;;;;;4.83;4.30;;;14.80;99.90;;;;;;5012289;28;20348;-72
2021/10/27 11:50:17;;;;;;;4.28;3.78;;;15.10;99.90;;;;;;5013544;28;20285;-71
2021/10/27 11:52:44;;;;;;;4.78;3.60;;;15.10;99.90;;;;;;5014554;28;20025;-73
2021/10/27 11:55:13;;;;;;;6.72;4.82;;;15.20;99.90;;;;;;5016064;28;20112;-72
2021/10/27 11:57:41;;;;;;;6.18;3.10;;;15.30;99.90;;;;;;4997227;28;20103;-72
2021/10/27 12:03:02;;;;;;;3.30;2.00;;;15.40;99.90;;;;;;4976285;28;20050;-73
2021/10/27 12:05:34;;;;;;;7.15;1.77;;;15.50;99.90;;;;;;4978062;28;20023;-72
2021/10/27 12:08:20;;;;;;;5.80;1.75;;;15.30;99.90;;;;;;4978266;28;20027;-73
2021/10/27 12:19:23;;;;;;;4.68;1.63;;;15.30;99.90;;;;;;4958239;29;20031;-73
2021/10/27 12:22:19;;;;;;;2.15;1.02;;;15.40;99.90;;;;;;4965498;28;20550;-73
2021/10/27 12:24:54;;;;;;;2.47;1.65;;;15.40;99.90;;;;;;4978220;28;20076;-72
2021/10/27 12:27:28;;;;;;;5.07;1.40;;;15.40;99.90;;;;;;4977731;28;20030;-73
2021/10/27 12:29:56;;;;;;;1.30;0.70;;;15.40;99.90;;;;;;4976724;28;20455;-73
2021/10/27 12:32:25;;;;;;;2.67;0.90;;;15.40;99.90;;;;;;4976771;28;20511;-77
2021/10/27 12:35:08;;;;;;;3.20;1.00;;;15.30;99.90;;;;;;4968321;28;20027;-77
2021/10/27 12:37:45;;;;;;;1.35;0.68;;;15.30;99.90;;;;;;4959248;29;20403;-77
2021/10/27 12:40:29;;;;;;;1.17;0.90;;;15.30;99.90;;;;;;4977800;28;20035;-76
2021/10/27 12:43:00;;;;;;;2.42;1.30;;;15.50;99.90;;;;;;4978506;28;20033;-77
2021/10/27 12:45:44;;;;;;;1.65;1.08;;;15.40;99.90;;;;;;4984808;28;20023;-77
2021/10/27 12:48:20;;;;;;;3.38;1.42;;;15.50;99.90;;;;;;4981558;28;20089;-76
2021/10/27 12:51:01;;;;;;;3.05;1.48;;;15.60;99.90;;;;;;4968811;28;20023;-76
2021/10/27 12:53:43;;;;;;;2.58;1.48;;;15.80;99.90;;;;;;4963732;29;20510;-77
2021/10/27 12:56:21;;;;;;;3.03;1.52;;;15.80;99.90;;;;;;4965971;28;20051;-75
2021/10/27 12:58:51;;;;;;;3.25;1.23;;;15.80;99.90;;;;;;4966205;28;20028;-75
2021/10/27 13:01:36;;;;;;;4.97;1.90;;;15.90;99.90;;;;;;4965793;28;20039;-77
2021/10/27 13:29:55;;;;;;;4.68;2.50;;;16.10;99.90;;;;;;4978712;28;20033;-77
2021/10/27 13:32:23;;;;;;;4.22;2.40;;;16.20;99.90;;;;;;4981471;28;20022;-76
2021/10/27 13:34:48;;;;;;;5.68;2.67;;;16.00;99.90;;;;;;4964055;28;20050;-78
2021/10/27 13:37:15;;;;;;;3.47;2.28;;;16.10;99.90;;;;;;4983125;28;20023;-76
2021/10/27 13:39:42;;;;;;;7.57;2.83;;;16.00;99.90;;;;;;4980462;28;20475;-77
2021/10/27 13:42:17;;;;;;;4.50;2.85;;;15.90;99.90;;;;;;4984112;28;20031;-78
2021/10/27 14:09:17;;;;;;;4.65;2.47;;;15.90;99.90;;;;;;4994078;28;20065;-77
2021/10/27 14:12:05;;;;;;;3.85;2.38;;;15.80;99.90;;;;;;4980894;28;20046;-77
2021/10/27 14:47:23;;;;;;;3.72;1.40;;;15.70;99.90;;;;;;4977876;28;20026;-76
2021/10/27 15:19:58;;;;;;;3.30;1.55;;;15.60;99.90;;;;;;4978672;28;20037;-74
2021/10/27 15:30:34;;;;;;;1.63;1.10;;;15.30;99.90;;;;;;4976452;28;20578;-73
2021/10/27 15:51:23;;;;;;;4.85;1.73;;;14.50;99.90;;;;;;4978962;28;20030;-73
2021/10/27 15:53:52;;;;;;;2.83;1.58;;;14.40;99.90;;;;;;4974249;28;20019;-73
2021/10/27 15:56:18;;;;;;;3.38;2.00;;;14.30;99.90;;;;;;4958304;28;20057;-72
2021/10/27 15:58:44;;;;;;;5.10;1.80;;;14.20;99.90;;;;;;4958045;28;20047;-73
2021/10/27 16:01:10;;;;;;;2.88;1.50;;;14.00;99.90;;;;;;4972301;28;20049;-73
2021/10/27 16:03:36;;;;;;;2.92;2.20;;;13.90;99.90;;;;;;4972821;28;20034;-72
2021/10/27 16:06:03;;;;;;;5.32;2.25;;;13.90;99.90;;;;;;4974349;28;20368;-73
2021/10/27 16:08:29;;;;;;;4.10;2.30;;;13.80;99.90;;;;;;4964640;28;20039;-73
2021/10/27 16:10:56;;;;;;;5.45;2.45;;;13.70;99.90;;;;;;4966055;28;20692;-74
2021/10/27 16:13:22;;;;;;;4.60;2.80;;;13.70;99.90;;;;;;4984567;28;20030;-71
2021/10/27 16:16:01;;;;;;;4.78;2.58;;;13.60;99.90;;;;;;4973242;28;20022;-73
2021/10/27 16:18:29;;;;;;;11.63;3.17;;;13.50;99.90;;;;;;4956701;28;20046;-76
2021/10/27 16:20:54;;;;;;;7.75;4.25;;;13.50;99.90;;;;;;4975118;28;20041;-75
2021/10/27 16:23:21;;;;;;;7.68;4.32;;;13.40;99.90;;;;;;4974306;28;20496;-74
2021/10/27 16:25:47;;;;;;;7.38;4.28;;;13.30;99.90;;;;;;4956825;28;20121;-74
2021/10/27 16:28:13;;;;;;;7.80;4.68;;;13.20;99.90;;;;;;4978643;28;20033;-75
2021/10/27 16:30:39;;;;;;;16.77;9.70;;;13.10;99.90;;;;;;4978191;28;20055;-75
2021/10/27 16:33:05;;;;;;;6.68;3.78;;;13.00;99.90;;;;;;4958891;28;20026;-77
2021/10/27 16:35:34;;;;;;;6.35;4.20;;;12.90;99.90;;;;;;4975851;28;20015;-74
2021/10/27 16:38:00;;;;;;;4.53;3.53;;;12.60;99.90;;;;;;4974668;28;20058;-74
2021/10/27 16:40:26;;;;;;;8.85;3.85;;;12.40;99.90;;;;;;4978498;28;20035;-74
2021/10/27 16:42:51;;;;;;;5.20;2.60;;;12.20;99.90;;;;;;4980731;28;20045;-74
2021/10/27 16:45:17;;;;;;;5.93;3.03;;;12.10;99.90;;;;;;4982386;28;20031;-76
2021/10/27 16:47:43;;;;;;;5.28;3.05;;;11.90;99.90;;;;;;4981012;28;20162;-75
2021/10/27 16:50:11;;;;;;;4.82;3.45;;;11.80;99.90;;;;;;4980148;28;20034;-74
2021/10/27 16:52:37;;;;;;;4.93;2.88;;;11.70;99.90;;;;;;4979279;28;20122;-74
2021/10/27 16:55:07;;;;;;;12.57;4.13;;;11.60;99.90;;;;;;4977987;28;20027;-74
2021/10/27 16:57:34;;;;;;;8.90;5.50;;;11.60;99.90;;;;;;4960896;28;20029;-74
2021/10/27 17:00:01;;;;;;;4.35;3.33;;;11.70;99.90;;;;;;4962098;28;20065;-76
2021/10/27 17:02:26;;;;;;;6.68;2.95;;;11.80;99.90;;;;;;4978050;28;20039;-76
2021/10/27 17:04:52;;;;;;;7.13;3.70;;;11.70;99.90;;;;;;4977795;28;20498;-74
2021/10/27 17:07:18;;;;;;;5.28;3.13;;;11.70;99.90;;;;;;4977990;28;20031;-77
2021/10/27 17:09:44;;;;;;;7.32;3.60;;;11.50;99.90;;;;;;4978237;28;20030;-75
2021/10/27 17:12:11;;;;;;;6.95;3.88;;;11.40;99.90;;;;;;4980136;28;20031;-75
2021/10/27 17:14:36;;;;;;;11.60;5.82;;;11.30;99.90;;;;;;4985841;28;20022;-73
2021/10/27 17:17:04;;;;;;;6.22;3.50;;;11.20;99.90;;;;;;4995860;28;20066;-72
2021/10/27 17:19:30;;;;;;;4.65;3.63;;;11.20;99.90;;;;;;4996130;28;20023;-72
2021/10/27 17:21:56;;;;;;;7.65;3.17;;;11.30;99.90;;;;;;4978698;29;20045;-73
2021/10/27 17:24:22;;;;;;;7.32;3.92;;;11.20;99.90;;;;;;4982667;28;20030;-74
2021/10/27 17:26:48;;;;;;;5.07;3.60;;;11.20;99.90;;;;;;4964400;28;20030;-73
2021/10/27 17:29:14;;;;;;;5.82;3.55;;;11.10;99.90;;;;;;4970203;28;20034;-74
2021/10/27 17:31:40;;;;;;;9.73;6.28;;;11.00;99.90;;;;;;4957805;29;20598;-72
2021/10/27 17:34:06;;;;;;;13.38;10.55;;;11.00;99.90;;;;;;4973554;28;20110;-74
2021/10/27 17:36:32;;;;;;;14.48;11.20;;;11.00;99.90;;;;;;4979868;28;20054;-74
2021/10/27 17:38:59;;;;;;;12.85;9.20;;;10.90;99.90;;;;;;4975815;28;20031;-75
2021/10/27 17:41:27;;;;;;;12.57;9.80;;;10.80;99.90;;;;;;4976914;28;20038;-75
2021/10/27 17:43:53;;;;;;;10.60;9.60;;;10.70;99.90;;;;;;4977596;28;20118;-74
2021/10/27 17:46:23;;;;;;;9.20;8.20;;;10.60;99.90;;;;;;4979768;28;20046;-75